Vosselaar, Belgium
Current Conditions -  °F | °C
As of 6:03 PM on Friday 24 Oct 2014 (Local Time) from EHGR Reporting Station
Overcast Overcast  
Wind Chill: 13°   Ceiling: 1700
Heat Index: 13°   Visibility: 6mi
Dew Point: 11°   Wind: 12mph
Humidity: 88%   Direction: 190°S
Pressure: 30"   Gusts: NA
Location:  51.31°N, 4.89°E
Report Text: EHGR 241603Z AUTO 19010KT 9999 FEW009 SCT013 OVC017 13/11 Q1016 GRN
Loading
Personal Weather Stations






























Interactive Weather Map
Tropical Storm Tracking
New forecast layout! Learn more

10-Day Weather Forecast

Advertisements
Track Severe Weather on mobile